createdAt,value
2019-04-22T00:01:31.185Z,101364.44
2019-04-22T00:04:47.493Z,101363.28
2019-04-22T00:08:14.942Z,101357.98
2019-04-22T00:11:26.061Z,101359.14
2019-04-22T00:14:24.518Z,101349.59
2019-04-22T00:17:54.852Z,101349.83
2019-04-22T00:21:16.059Z,101341.08
2019-04-22T00:24:29.988Z,101346.91
2019-04-22T00:27:48.999Z,101336.97
2019-04-22T00:31:15.484Z,101339.61
2019-04-22T00:34:22.844Z,101340.61
2019-04-22T00:37:57.015Z,101339.52
2019-04-22T00:41:14.897Z,101336.34
2019-04-22T00:44:37.298Z,101334.53
2019-04-22T00:47:38.202Z,101335.82
2019-04-22T00:51:01.646Z,101335.75
2019-04-22T00:54:03.831Z,101339.29
2019-04-22T00:57:12.314Z,101333.34
2019-04-22T01:00:27.749Z,101330.16
2019-04-22T01:03:35.738Z,101327.23
2019-04-22T01:06:49.529Z,101329.75
2019-04-22T01:10:12.702Z,101327.82
2019-04-22T01:13:12.739Z,101331.03
2019-04-22T01:16:48.589Z,101322.84
2019-04-22T01:23:09.618Z,101320.50
2019-04-22T01:26:24.287Z,101315.36
2019-04-22T01:29:33.711Z,101311.28
2019-04-22T01:32:39.996Z,101304.34
2019-04-22T01:36:13.901Z,101310.63
2019-04-22T01:39:40.298Z,101305.18
2019-04-22T01:43:07.357Z,101310.34
2019-04-22T01:46:19.754Z,101313.60
2019-04-22T01:49:25.742Z,101316.19
2019-04-22T01:52:39.874Z,101303.78
2019-04-22T01:56:01.267Z,101298.03
2019-04-22T01:59:06.339Z,101298.73
2019-04-22T02:02:42.287Z,101293.06
2019-04-22T02:05:59.516Z,101298.34
2019-04-22T02:09:24.099Z,101298.15
2019-04-22T02:12:38.848Z,101299.64
2019-04-22T02:16:00.495Z,101297.97
2019-04-22T02:19:19.066Z,101296.48
2019-04-22T02:22:51.032Z,101295.29
2019-04-22T02:26:05.976Z,101297.77
2019-04-22T02:29:01.664Z,101298.94
2019-04-22T02:32:34.731Z,101301.56
2019-04-22T02:35:55.133Z,101300.70
2019-04-22T02:42:14.409Z,101292.61
2019-04-22T02:45:41.800Z,101287.05
2019-04-22T02:49:11.802Z,101285.13
2019-04-22T02:52:11.594Z,101284.28
2019-04-22T02:55:27.521Z,101274.73
2019-04-22T03:02:07.608Z,101263.37
2019-04-22T03:05:27.938Z,101259.64
2019-04-22T03:08:45.648Z,101266.48
2019-04-22T03:11:55.351Z,101257.41
2019-04-22T03:18:09.613Z,101249.77
2019-04-22T03:24:36.308Z,101253.05
2019-04-22T03:31:31.637Z,101249.77
2019-04-22T03:37:52.643Z,101245.95
2019-04-22T03:44:13.927Z,101244.41
2019-04-22T03:47:16.091Z,101241.62
2019-04-22T03:54:03.398Z,101242.55
2019-04-22T03:57:24.986Z,101250.25
2019-04-22T04:00:32.596Z,101242.94
2019-04-22T04:03:57.811Z,101243.06
2019-04-22T04:10:19.501Z,101245.03
2019-04-22T04:16:56.246Z,101244.22
2019-04-22T04:20:21.554Z,101244.13
2019-04-22T04:33:16.020Z,101240.67
2019-04-22T04:43:08.378Z,101233.48
2019-04-22T04:46:37.745Z,101233.96
2019-04-22T05:06:16.475Z,101236.14
2019-04-22T05:16:10.629Z,101238.77
2019-04-22T05:22:28.558Z,101232.02
2019-04-22T05:25:42.755Z,101230.73
2019-04-22T05:29:07.983Z,101226.83
2019-04-22T05:32:24.634Z,101225.09
2019-04-22T05:35:40.914Z,101225.97
2019-04-22T05:38:59.850Z,101231.69
2019-04-22T05:42:10.419Z,101229.13
2019-04-22T05:48:48.716Z,101222.58
2019-04-22T05:52:06.855Z,101228.41
2019-04-22T05:55:26.804Z,101231.62
2019-04-22T05:58:41.581Z,101237.23
2019-04-22T06:01:58.600Z,101235.42
2019-04-22T06:05:19.646Z,101238.47
2019-04-22T06:08:32.588Z,101235.62
2019-04-22T06:11:46.467Z,101239.49
2019-04-22T06:15:15.327Z,101238.09
2019-04-22T06:18:27.182Z,101245.16
2019-04-22T06:22:06.869Z,101247.13
2019-04-22T06:25:09.979Z,101253.98
2019-04-22T06:31:55.982Z,101250.97
2019-04-22T06:34:51.755Z,101254.95
2019-04-22T06:38:30.375Z,101255.72
2019-04-22T06:41:27.393Z,101254.86
2019-04-22T06:44:56.389Z,101251.26
2019-04-22T06:48:09.876Z,101252.34
2019-04-22T06:51:30.976Z,101256.49
2019-04-22T06:54:33.021Z,101256.91
2019-04-22T06:57:45.265Z,101264.41
2019-04-22T07:00:46.044Z,101253.31
2019-04-22T07:03:57.040Z,101251.00
2019-04-22T07:07:19.654Z,101257.59
2019-04-22T07:10:44.841Z,101250.18
2019-04-22T07:17:15.897Z,101253.25
2019-04-22T07:20:38.287Z,101249.69
2019-04-22T07:24:03.129Z,101248.56
2019-04-22T07:27:10.261Z,101249.07
2019-04-22T07:30:28.017Z,101251.97
2019-04-22T07:33:43.892Z,101263.58
2019-04-22T07:37:23.129Z,101251.52
2019-04-22T07:40:27.083Z,101254.80
2019-04-22T07:43:41.507Z,101260.16
2019-04-22T07:46:43.159Z,101259.41
2019-04-22T07:49:50.890Z,101258.20
2019-04-22T07:52:59.226Z,101256.22
2019-04-22T07:56:08.311Z,101251.46
2019-04-22T07:59:40.520Z,101245.30
2019-04-22T08:03:04.244Z,101243.55
2019-04-22T08:06:16.910Z,101243.46
2019-04-22T08:12:47.404Z,101239.08
2019-04-22T08:16:02.656Z,101243.92
2019-04-22T08:19:28.171Z,101239.36
2019-04-22T08:22:43.121Z,101241.27
2019-04-22T08:25:55.058Z,101239.52
2019-04-22T08:29:21.685Z,101237.61
2019-04-22T08:36:09.040Z,101241.41
2019-04-22T08:39:15.384Z,101233.61
2019-04-22T08:42:46.497Z,101225.25
2019-04-22T08:45:46.440Z,101238.89
2019-04-22T08:48:51.621Z,101240.36
2019-04-22T08:52:08.731Z,101235.23
2019-04-22T08:55:29.701Z,101230.64
2019-04-22T08:58:34.266Z,101228.04
2019-04-22T09:01:51.769Z,101234.70
2019-04-22T09:05:11.997Z,101231.98
2019-04-22T09:08:48.832Z,101225.41
2019-04-22T09:11:47.136Z,101221.18
2019-04-22T09:15:16.291Z,101217.17
2019-04-22T09:18:42.191Z,101217.09
2019-04-22T09:21:32.675Z,101218.59
2019-04-22T09:24:54.031Z,101213.02
2019-04-22T09:28:10.483Z,101203.71
2019-04-22T09:31:23.885Z,101209.95
2019-04-22T09:34:46.969Z,101197.83
2019-04-22T09:38:12.570Z,101197.68
2019-04-22T09:41:10.413Z,101206.09
2019-04-22T09:44:08.154Z,101199.53
2019-04-22T09:47:26.318Z,101196.52
2019-04-22T09:50:44.821Z,101193.00
2019-04-22T09:57:01.885Z,101186.17
2019-04-22T10:00:10.667Z,101184.14
2019-04-22T10:03:20.418Z,101179.75
2019-04-22T10:06:36.692Z,101175.75
2019-04-22T10:09:59.779Z,101179.14
2019-04-22T10:12:59.816Z,101167.52
2019-04-22T10:16:17.378Z,101162.98
2019-04-22T10:19:23.466Z,101161.06
2019-04-22T10:22:32.363Z,101159.50
2019-04-22T10:25:50.878Z,101160.31
2019-04-22T10:28:55.804Z,101159.50
2019-04-22T10:35:05.039Z,101151.93
2019-04-22T10:38:10.232Z,101146.98
2019-04-22T10:41:18.535Z,101145.11
2019-04-22T10:44:27.056Z,101136.33
2019-04-22T10:47:34.228Z,101136.33
2019-04-22T10:50:46.588Z,101134.87
2019-04-22T10:53:55.552Z,101131.80
2019-04-22T10:57:03.261Z,101125.34
2019-04-22T11:00:20.064Z,101121.34
2019-04-22T11:03:28.308Z,101118.45
2019-04-22T11:06:40.923Z,101112.37
2019-04-22T11:09:52.110Z,101110.17
2019-04-22T11:13:04.971Z,101104.72
2019-04-22T11:16:21.750Z,101101.13
2019-04-22T11:19:39.467Z,101097.53
2019-04-22T11:22:47.087Z,101106.88
2019-04-22T11:25:54.398Z,101103.44
2019-04-22T11:29:01.618Z,101104.73
2019-04-22T11:32:08.795Z,101093.52
2019-04-22T11:35:16.275Z,101091.63
2019-04-22T11:38:22.723Z,101086.64
2019-04-22T11:41:31.145Z,101070.66
2019-04-22T11:44:39.127Z,101075.52
2019-04-22T11:47:47.618Z,101072.88
2019-04-22T11:50:55.791Z,101064.77
2019-04-22T11:54:12.657Z,101070.66
2019-04-22T11:57:30.846Z,101066.10
2019-04-22T12:00:49.373Z,101056.63
2019-04-22T12:04:07.431Z,101052.26
2019-04-22T12:07:24.412Z,101050.75
2019-04-22T12:10:49.482Z,101051.53
2019-04-22T12:14:00.159Z,101048.91
2019-04-22T12:17:08.074Z,101043.52
2019-04-22T12:20:18.007Z,101038.84
2019-04-22T12:23:25.269Z,101039.14
2019-04-22T12:26:32.525Z,101039.69
2019-04-22T12:29:40.724Z,101034.42
2019-04-22T12:32:58.086Z,101026.81
2019-04-22T12:36:06.913Z,101027.05
2019-04-22T12:39:15.584Z,101020.44
2019-04-22T12:42:23.662Z,101019.73
2019-04-22T12:45:31.984Z,101017.66
2019-04-22T12:48:39.331Z,101005.68
2019-04-22T12:51:47.423Z,101003.37
2019-04-22T12:54:55.224Z,100988.94
2019-04-22T12:58:02.835Z,100985.53
2019-04-22T13:01:21.227Z,100991.50
2019-04-22T13:04:30.128Z,100992.26
2019-04-22T13:07:37.909Z,100996.48
2019-04-22T13:10:55.539Z,100980.83
2019-04-22T13:13:54.897Z,100979.14
2019-04-22T13:17:02.202Z,100977.94
2019-04-22T13:20:21.924Z,100976.44
2019-04-22T13:23:29.869Z,100967.48
2019-04-22T13:26:46.883Z,100964.49
2019-04-22T13:30:06.185Z,100962.80
2019-04-22T13:33:14.830Z,100956.67
2019-04-22T13:36:24.498Z,100949.74
2019-04-22T13:39:31.760Z,100942.91
2019-04-22T13:42:49.200Z,100945.27
2019-04-22T13:45:56.129Z,100946.31
2019-04-22T13:49:31.062Z,100940.17
2019-04-22T13:52:49.152Z,100932.48
2019-04-22T13:55:57.884Z,100935.17
2019-04-22T13:59:06.265Z,100928.21
2019-04-22T14:02:34.905Z,100927.47
2019-04-22T14:05:44.666Z,100922.14
2019-04-22T14:09:03.278Z,100922.91
2019-04-22T14:12:21.697Z,100918.40
2019-04-22T14:15:40.148Z,100917.15
2019-04-22T14:18:58.121Z,100914.80
2019-04-22T14:22:07.484Z,100917.56
2019-04-22T14:25:16.607Z,100913.03
2019-04-22T14:28:25.485Z,100911.02
2019-04-22T14:31:32.943Z,100908.32
2019-04-22T14:34:40.636Z,100905.89
2019-04-22T14:37:50.178Z,100901.16
2019-04-22T14:40:58.542Z,100894.46
2019-04-22T14:47:51.394Z,100901.17
2019-04-22T14:50:53.217Z,100890.16
2019-04-22T14:54:01.440Z,100892.94
2019-04-22T14:56:52.044Z,100891.13
2019-04-22T14:59:59.813Z,100882.11
2019-04-22T15:03:08.237Z,100885.70
2019-04-22T15:06:26.200Z,100871.39
2019-04-22T15:09:34.189Z,100870.45
2019-04-22T15:12:45.846Z,100861.97
2019-04-22T15:16:13.907Z,100868.50
2019-04-22T15:20:07.701Z,100871.09
2019-04-22T15:23:15.071Z,100861.06
2019-04-22T15:26:24.389Z,100856.00
2019-04-22T15:29:41.276Z,100860.39
2019-04-22T15:32:59.078Z,100851.23
2019-04-22T15:36:07.647Z,100854.17
2019-04-22T15:39:15.555Z,100837.45
2019-04-22T15:42:28.851Z,100844.34
2019-04-22T15:45:41.309Z,100842.58
2019-04-22T15:48:48.554Z,100844.38
2019-04-22T15:51:58.871Z,100840.67
2019-04-22T15:55:14.668Z,100835.09
2019-04-22T15:58:21.988Z,100827.40
2019-04-22T16:01:34.057Z,100830.67
2019-04-22T16:07:45.823Z,100834.73
2019-04-22T16:10:53.700Z,100832.22
2019-04-22T16:14:10.596Z,100826.76
2019-04-22T16:17:28.575Z,100827.34
2019-04-22T16:20:46.143Z,100829.64
2019-04-22T16:24:02.569Z,100830.61
2019-04-22T16:27:27.923Z,100830.39
2019-04-22T16:30:35.269Z,100833.31
2019-04-22T16:33:45.642Z,100824.95
2019-04-22T16:36:52.711Z,100825.80
2019-04-22T16:40:00.846Z,100821.81
2019-04-22T16:43:10.163Z,100826.66
2019-04-22T16:46:16.191Z,100813.72
2019-04-22T16:49:23.629Z,100818.72
2019-04-22T16:52:32.052Z,100809.00
2019-04-22T16:55:39.399Z,100805.67
2019-04-22T16:58:46.675Z,100814.86
2019-04-22T17:02:12.980Z,100811.07
2019-04-22T17:05:45.495Z,100815.23
2019-04-22T17:08:52.993Z,100818.29
2019-04-22T17:12:01.504Z,100816.23
2019-04-22T17:15:12.334Z,100815.56
2019-04-22T17:18:19.238Z,100818.00
2019-04-22T17:21:27.756Z,100810.98
2019-04-22T17:24:35.447Z,100818.30
2019-04-22T17:27:43.465Z,100821.36
2019-04-22T17:30:51.968Z,100813.51
2019-04-22T17:34:09.656Z,100818.23
2019-04-22T17:37:23.477Z,100816.48
2019-04-22T17:40:48.095Z,100820.05
2019-04-22T17:44:28.670Z,100818.14
2019-04-22T17:47:35.918Z,100817.78
2019-04-22T17:51:20.630Z,100818.42
2019-04-22T17:54:26.896Z,100818.25
2019-04-22T17:57:38.471Z,100822.98
2019-04-22T18:01:12.279Z,100826.58
2019-04-22T18:03:57.362Z,100829.30
2019-04-22T18:07:29.843Z,100821.88
2019-04-22T18:10:36.202Z,100832.50
2019-04-22T18:13:44.660Z,100825.27
2019-04-22T18:16:53.565Z,100830.37
2019-04-22T18:19:54.701Z,100826.95
2019-04-22T18:22:56.747Z,100830.22
2019-04-22T18:26:14.853Z,100836.70
2019-04-22T18:29:35.834Z,100829.84
2019-04-22T18:32:52.201Z,100831.73
2019-04-22T18:36:14.115Z,100838.95
2019-04-22T18:39:42.388Z,100841.80
2019-04-22T18:42:49.429Z,100842.72
2019-04-22T18:46:09.526Z,100833.51
2019-04-22T18:49:26.781Z,100843.11
2019-04-22T18:53:09.533Z,100843.59
2019-04-22T18:56:32.361Z,100846.43
2019-04-22T18:59:25.840Z,100846.53
2019-04-22T19:02:29.532Z,100854.75
2019-04-22T19:05:55.771Z,100862.38
2019-04-22T19:09:10.667Z,100855.22
2019-04-22T19:15:47.203Z,100862.23
2019-04-22T19:19:20.500Z,100860.05
2019-04-22T19:22:25.288Z,100863.42
2019-04-22T19:25:36.801Z,100874.84
2019-04-22T19:28:49.771Z,100874.16
2019-04-22T19:31:57.341Z,100882.17
2019-04-22T19:35:03.546Z,100879.89
2019-04-22T19:38:14.359Z,100883.73
2019-04-22T19:41:40.768Z,100884.86
2019-04-22T19:45:02.592Z,100893.84
2019-04-22T19:48:29.130Z,100895.73
2019-04-22T19:51:50.999Z,100903.34
2019-04-22T19:54:47.787Z,100904.02
2019-04-22T19:58:05.502Z,100908.98
2019-04-22T20:01:34.593Z,100901.00
2019-04-22T20:05:06.569Z,100901.00
2019-04-22T20:08:14.063Z,100908.34
2019-04-22T20:11:22.714Z,100910.12
2019-04-22T20:14:38.225Z,100911.45
2019-04-22T20:17:45.475Z,100916.97
2019-04-22T20:20:56.930Z,100909.62
2019-04-22T20:23:48.293Z,100916.16
2019-04-22T20:27:12.326Z,100911.63
2019-04-22T20:30:17.231Z,100908.41
2019-04-22T20:33:29.152Z,100913.85
2019-04-22T20:36:52.705Z,100917.95
2019-04-22T20:39:43.810Z,100914.00
2019-04-22T20:42:55.046Z,100909.83
2019-04-22T20:46:03.111Z,100915.61
2019-04-22T20:49:05.005Z,100917.99
2019-04-22T20:52:20.317Z,100916.91
2019-04-22T20:55:23.915Z,100907.03
2019-04-22T20:58:32.997Z,100905.28
2019-04-22T21:01:41.511Z,100903.99
2019-04-22T21:04:41.082Z,100901.08
2019-04-22T21:08:06.388Z,100902.07
2019-04-22T21:11:04.151Z,100898.45
2019-04-22T21:14:27.454Z,100894.83
2019-04-22T21:17:45.897Z,100902.53
2019-04-22T21:21:02.278Z,100890.95
2019-04-22T21:24:20.478Z,100894.98
2019-04-22T21:27:45.520Z,100886.45
2019-04-22T21:30:57.179Z,100882.36
2019-04-22T21:34:16.161Z,100880.60
2019-04-22T21:37:38.615Z,100880.61
2019-04-22T21:40:40.246Z,100881.16
2019-04-22T21:43:58.186Z,100879.11
2019-04-22T21:47:23.795Z,100871.49
2019-04-22T21:54:04.171Z,100867.61
2019-04-22T21:57:55.187Z,100866.69
2019-04-22T22:01:14.073Z,100861.14
2019-04-22T22:04:17.501Z,100862.54
2019-04-22T22:07:13.252Z,100863.19
2019-04-22T22:10:34.445Z,100855.52
2019-04-22T22:13:51.498Z,100851.12
2019-04-22T22:17:07.700Z,100848.08
2019-04-22T22:20:14.778Z,100840.03
2019-04-22T22:23:32.967Z,100830.92
2019-04-22T22:26:40.625Z,100832.39
2019-04-22T22:33:04.173Z,100827.58
2019-04-22T22:36:03.642Z,100831.09
2019-04-22T22:39:13.245Z,100819.94
2019-04-22T22:42:22.466Z,100811.73
2019-04-22T22:45:34.845Z,100815.89
2019-04-22T22:48:58.845Z,100811.98
2019-04-22T22:52:16.734Z,100799.81
2019-04-22T22:55:11.992Z,100800.77
2019-04-22T22:58:34.028Z,100796.77
2019-04-22T23:02:01.325Z,100790.15
2019-04-22T23:05:09.393Z,100794.46
2019-04-22T23:08:25.746Z,100788.73
2019-04-22T23:11:59.898Z,100783.20
2019-04-22T23:15:00.573Z,100779.80
2019-04-22T23:17:59.577Z,100776.98
2019-04-22T23:21:15.105Z,100786.07
2019-04-22T23:25:00.213Z,100768.28
2019-04-22T23:28:28.195Z,100778.89
2019-04-22T23:31:43.023Z,100771.75
2019-04-22T23:35:01.311Z,100768.84
2019-04-22T23:38:13.771Z,100764.75
2019-04-22T23:41:52.102Z,100771.78
2019-04-22T23:44:43.383Z,100771.33
2019-04-22T23:47:43.199Z,100759.81
2019-04-22T23:51:03.358Z,100764.51
2019-04-22T23:54:24.408Z,100766.04
2019-04-22T23:57:44.766Z,100762.19
